G1 CYXU-CYXU
Flight info
| Callsign | G1 |
|---|---|
| Flight time | N/A |
| Altitude | 1900 |
| Route | CIRCUITS |
| Aircraft | CF105 |
Departure
| Time | 2026-04-29 22:52 |
|---|---|
| Airport | London International Airport (CYXU) |
Arrival
| Time | N/A |
|---|---|
| Airport | London International Airport (CYXU) |
| Time | Latitude | Longitude | Altitude | Speed | Heading |
|---|---|---|---|---|---|
| 2026-04-29 22:41 | 43.03575 | -81.16199 | 906 ft | 0 kts | 79° |
| 2026-04-29 22:43 | 43.03588 | -81.16169 | 906 ft | 4 kts | 38° |
| 2026-04-29 22:43 | 43.03614 | -81.16146 | 905 ft | 3 kts | 32° |
| 2026-04-29 22:44 | 43.03641 | -81.16104 | 905 ft | 5 kts | 59° |
| 2026-04-29 22:44 | 43.03669 | -81.15982 | 904 ft | 13 kts | 77° |
| 2026-04-29 22:44 | 43.03683 | -81.15911 | 903 ft | 9 kts | 77° |
| 2026-04-29 22:44 | 43.03696 | -81.15829 | 902 ft | 10 kts | 78° |
| 2026-04-29 22:45 | 43.03700 | -81.15806 | 902 ft | 0 kts | 75° |
| 2026-04-29 22:45 | 43.03702 | -81.15779 | 901 ft | 13 kts | 85° |
| 2026-04-29 22:45 | 43.03678 | -81.15659 | 901 ft | 11 kts | 135° |
| 2026-04-29 22:45 | 43.03634 | -81.15607 | 901 ft | 7 kts | 139° |
| 2026-04-29 22:46 | 43.03605 | -81.15573 | 901 ft | 10 kts | 140° |
| 2026-04-29 22:46 | 43.03522 | -81.15471 | 902 ft | 15 kts | 138° |
| 2026-04-29 22:46 | 43.03443 | -81.15375 | 904 ft | 14 kts | 138° |
| 2026-04-29 22:46 | 43.03381 | -81.15299 | 903 ft | 10 kts | 138° |
| 2026-04-29 22:47 | 43.03337 | -81.15245 | 903 ft | 12 kts | 138° |
| 2026-04-29 22:47 | 43.03293 | -81.15195 | 904 ft | 11 kts | 140° |
| 2026-04-29 22:47 | 43.03221 | -81.15111 | 901 ft | 16 kts | 136° |
| 2026-04-29 22:47 | 43.03123 | -81.14993 | 899 ft | 18 kts | 140° |
| 2026-04-29 22:48 | 43.03044 | -81.14895 | 898 ft | 11 kts | 137° |
| 2026-04-29 22:48 | 43.02982 | -81.14821 | 897 ft | 14 kts | 141° |
| 2026-04-29 22:48 | 43.02892 | -81.14716 | 899 ft | 12 kts | 138° |
| 2026-04-29 22:48 | 43.02842 | -81.14655 | 899 ft | 9 kts | 138° |
| 2026-04-29 22:49 | 43.02775 | -81.14574 | 900 ft | 14 kts | 139° |
| 2026-04-29 22:49 | 43.02728 | -81.14517 | 901 ft | 12 kts | 140° |
| 2026-04-29 22:49 | 43.02672 | -81.14451 | 902 ft | 14 kts | 139° |
| 2026-04-29 22:49 | 43.02585 | -81.14354 | 900 ft | 14 kts | 140° |
| 2026-04-29 22:50 | 43.02524 | -81.14275 | 900 ft | 10 kts | 138° |
| 2026-04-29 22:50 | 43.02462 | -81.14201 | 898 ft | 18 kts | 140° |
| 2026-04-29 22:50 | 43.02362 | -81.14083 | 896 ft | 19 kts | 140° |
| 2026-04-29 22:50 | 43.02313 | -81.13972 | 896 ft | 14 kts | 66° |
| 2026-04-29 22:51 | 43.02401 | -81.13846 | 896 ft | 15 kts | 20° |
| 2026-04-29 22:51 | 43.02429 | -81.13844 | 896 ft | 2 kts | 318° |
| 2026-04-29 22:51 | 43.04656 | -81.16484 | 1193 ft | 301 kts | 323° |
| 2026-04-29 22:52 | 43.06140 | -81.16856 | 1623 ft | 186 kts | 87° |
| 2026-04-29 22:52 | 43.05763 | -81.15275 | 1559 ft | 173 kts | 138° |
| 2026-04-29 22:52 | 43.04678 | -81.14193 | 1597 ft | 201 kts | 142° |
| 2026-04-29 22:52 | 43.03662 | -81.13036 | 1596 ft | 188 kts | 138° |
| 2026-04-29 22:53 | 43.02711 | -81.11855 | 1605 ft | 177 kts | 138° |
| 2026-04-29 22:53 | 43.01799 | -81.10720 | 1667 ft | 182 kts | 139° |
| 2026-04-29 22:53 | 43.00815 | -81.09445 | 1778 ft | 244 kts | 136° |
| 2026-04-29 22:53 | 42.99624 | -81.07852 | 1825 ft | 224 kts | 142° |
| 2026-04-29 22:54 | 42.98366 | -81.07816 | 1777 ft | 177 kts | 238° |
| 2026-04-29 22:54 | 42.98571 | -81.09243 | 1596 ft | 202 kts | 320° |
| 2026-04-29 22:54 | 42.99563 | -81.10371 | 1555 ft | 168 kts | 319° |
| 2026-04-29 22:54 | 43.00371 | -81.11342 | 1366 ft | 148 kts | 318° |
| 2026-04-29 22:55 | 43.01138 | -81.12229 | 1174 ft | 144 kts | 328° |
| 2026-04-29 22:55 | 43.02156 | -81.12456 | 1131 ft | 167 kts | 19° |
| 2026-04-29 22:55 | 43.03035 | -81.11226 | 1296 ft | 191 kts | 77° |
| 2026-04-29 22:55 | 43.02723 | -81.09567 | 1677 ft | 205 kts | 136° |
| 2026-04-29 22:56 | 43.01595 | -81.09444 | 1716 ft | 171 kts | 210° |
| 2026-04-29 22:56 | 43.00818 | -81.10655 | 1479 ft | 162 kts | 257° |
| 2026-04-29 22:56 | 43.01024 | -81.11988 | 1206 ft | 136 kts | 307° |
| 2026-04-29 22:56 | 43.01700 | -81.12938 | 1007 ft | 138 kts | 319° |
| 2026-04-29 22:57 | 43.02386 | -81.13757 | 901 ft | 123 kts | 317° |
| 2026-04-29 22:57 | 43.03295 | -81.14874 | 1056 ft | 283 kts | 316° |
| 2026-04-29 22:57 | 43.04955 | -81.17019 | 1398 ft | 353 kts | 316° |
| 2026-04-29 22:57 | 43.06482 | -81.17089 | 1941 ft | 249 kts | 96° |
| 2026-04-29 22:58 | 43.05685 | -81.15209 | 2129 ft | 201 kts | 139° |
| 2026-04-29 22:58 | 43.04664 | -81.14075 | 2073 ft | 207 kts | 142° |
| 2026-04-29 22:58 | 43.03612 | -81.12847 | 2007 ft | 230 kts | 138° |
| 2026-04-29 22:58 | 43.02368 | -81.11284 | 1939 ft | 232 kts | 137° |
| 2026-04-29 22:59 | 43.01135 | -81.10729 | 1718 ft | 175 kts | 219° |
| 2026-04-29 22:59 | 43.01005 | -81.12104 | 1446 ft | 158 kts | 316° |
| 2026-04-29 22:59 | 43.01856 | -81.13139 | 1034 ft | 155 kts | 318° |
| 2026-04-29 22:59 | 43.02628 | -81.14071 | 901 ft | 135 kts | 318° |
| 2026-04-29 23:00 | 43.03799 | -81.15520 | 1131 ft | 339 kts | 315° |
| 2026-04-29 23:00 | 43.04727 | -81.18224 | 1404 ft | 330 kts | 250° |
| 2026-04-29 23:00 | 43.02405 | -81.19570 | 1384 ft | 462 kts | 172° |
| 2026-04-29 23:00 | 42.99052 | -81.18941 | 1597 ft | 506 kts | 172° |
| 2026-04-29 23:01 | 42.95511 | -81.18215 | 1685 ft | 521 kts | 171° |
| 2026-04-29 23:01 | 42.91946 | -81.17454 | 2292 ft | 518 kts | 171° |
| 2026-04-29 23:01 | 42.88314 | -81.16443 | 1998 ft | 539 kts | 165° |
| 2026-04-29 23:01 | 42.84735 | -81.14960 | 2681 ft | 556 kts | 163° |
| 2026-04-29 23:02 | 42.80093 | -81.13648 | 2497 ft | 799 kts | 168° |
| 2026-04-29 23:02 | 42.74297 | -81.11622 | 2289 ft | 875 kts | 111° |
| 2026-04-29 23:02 | 42.69265 | -81.10124 | 1726 ft | 812 kts | 182° |
| 2026-04-29 23:02 | 42.63493 | -81.11421 | 2238 ft | 925 kts | 176° |
| 2026-04-29 23:03 | 42.60715 | -81.11161 | 2425 ft | 958 kts | 176° |
| 2026-04-29 23:03 | 42.55661 | -81.13781 | 3937 ft | 992 kts | 198° |
| 2026-04-29 23:03 | 42.51266 | -81.18459 | 9493 ft | 525 kts | 199° |
| 2026-04-29 23:03 | 42.46033 | -81.21843 | 6470 ft | 953 kts | 205° |
| 2026-04-29 23:04 | 42.44137 | -81.22489 | 19187 ft | 600 kts | 184° |
| 2026-04-29 23:04 | 42.41593 | -81.22981 | 15944 ft | 730 kts | 201° |